Time;durP1;ratioP1;P1;durP2;ratioP2;P2;SDS_P1;SDS_P2;PMS_P1;PMS_P2;Temp;Humidity;BMP_temperature;BMP_pressure;BME280_temperature;BME280_humidity;BME280_pressure;Samples;Min_cycle;Max_cycle;Signal;HPM_P1;HPM_P2
2022/06/21 00:01:16;;;;;;;8.32;1.77;;;;;;;14.13;57.54;100613.09;5071689;28;20020;-84
2022/06/21 00:03:44;;;;;;;9.55;2.33;;;;;;;14.04;58.23;100609.63;5055281;28;20020;-85
2022/06/21 00:06:12;;;;;;;5.15;2.03;;;;;;;13.88;58.66;100605.09;5054909;28;20070;-85
2022/06/21 00:08:38;;;;;;;10.73;2.65;;;;;;;13.73;59.42;100611.03;5091325;28;20055;-84
2022/06/21 00:11:17;;;;;;;9.25;2.20;;;;;;;13.62;59.55;100598.88;5074170;28;20030;-83
2022/06/21 00:13:43;;;;;;;6.35;1.90;;;;;;;13.57;59.97;100605.66;5057931;28;20036;-82
2022/06/21 00:16:12;;;;;;;7.38;2.05;;;;;;;13.52;60.23;100606.16;5031765;28;20712;-82
2022/06/21 00:18:40;;;;;;;9.25;1.80;;;;;;;13.48;60.72;100610.91;5040201;28;20510;-83
2022/06/21 00:21:12;;;;;;;10.75;2.63;;;;;;;13.43;61.08;100607.88;5073546;28;20032;-84
2022/06/21 00:23:38;;;;;;;10.82;2.92;;;;;;;13.36;61.35;100607.69;5056661;28;20557;-84
2022/06/21 00:26:04;;;;;;;16.33;2.80;;;;;;;13.31;62.11;100601.19;5039943;28;20043;-82
2022/06/21 00:28:30;;;;;;;10.25;1.92;;;;;;;13.31;62.33;100598.53;5041020;28;20392;-82
2022/06/21 00:30:56;;;;;;;9.93;2.58;;;;;;;13.26;62.56;100602.53;5057154;28;20040;-82
2022/06/21 00:33:24;;;;;;;10.63;1.92;;;;;;;13.26;62.82;100591.06;5040326;28;20056;-82
2022/06/21 00:35:53;;;;;;;7.38;1.95;;;;;;;13.26;62.84;100596.38;4983061;28;20031;-82
2022/06/21 00:38:27;;;;;;;14.30;2.47;;;;;;;13.24;63.33;100593.03;5037106;28;20032;-83
2022/06/21 00:40:56;;;;;;;14.13;2.67;;;;;;;13.25;63.61;100590.22;5052915;28;20085;-82
2022/06/21 00:43:28;;;;;;;13.65;1.98;;;;;;;13.25;63.92;100592.06;5040285;28;20592;-83
2022/06/21 00:45:54;;;;;;;12.82;2.78;;;;;;;13.16;64.62;100585.84;5052216;28;20558;-82
2022/06/21 00:48:44;;;;;;;13.68;2.38;;;;;;;13.07;65.22;100587.66;5023941;28;20028;-82
2022/06/21 00:51:24;;;;;;;13.35;2.33;;;;;;;13.02;65.35;100582.81;5053478;28;20031;-82
2022/06/21 00:53:56;;;;;;;14.70;2.60;;;;;;;13.02;66.00;100581.97;5053955;28;20032;-82
2022/06/21 00:56:36;;;;;;;12.65;2.80;;;;;;;13.05;65.78;100573.69;5052691;28;20385;-83
2022/06/21 00:59:21;;;;;;;17.83;2.67;;;;;;;13.07;66.23;100577.03;5052898;28;20036;-83
2022/06/21 01:01:49;;;;;;;15.75;2.42;;;;;;;13.04;66.39;100577.34;5074680;28;20039;-84
2022/06/21 01:04:28;;;;;;;14.10;2.58;;;;;;;13.04;66.44;100582.66;5061476;28;20515;-85
2022/06/21 01:06:57;;;;;;;12.07;2.47;;;;;;;13.06;66.34;100574.53;5047869;28;20040;-84
2022/06/21 01:09:46;;;;;;;12.45;2.47;;;;;;;13.01;66.87;100580.31;5066837;28;20032;-84
2022/06/21 01:12:14;;;;;;;14.52;3.15;;;;;;;12.96;66.95;100583.44;5074015;28;20032;-85
2022/06/21 01:14:53;;;;;;;10.32;2.40;;;;;;;12.94;67.31;100576.63;5059119;28;20039;-86
2022/06/21 01:17:20;;;;;;;20.30;2.70;;;;;;;12.89;67.72;100569.97;5058523;28;20484;-84
2022/06/21 01:19:55;;;;;;;13.27;2.58;;;;;;;12.89;67.16;100562.00;5076161;28;20024;-83
2022/06/21 01:22:53;;;;;;;11.02;2.42;;;;;;;12.85;67.53;100557.19;5060980;28;20039;-84
2022/06/21 01:25:37;;;;;;;13.30;2.67;;;;;;;12.78;67.74;100549.00;5079564;28;20024;-83
2022/06/21 01:28:04;;;;;;;8.70;2.75;;;;;;;12.72;67.68;100542.50;5055391;28;20028;-83
2022/06/21 01:30:30;;;;;;;11.77;2.35;;;;;;;12.63;68.00;100541.63;5078658;28;20380;-86
2022/06/21 01:32:58;;;;;;;10.98;2.50;;;;;;;12.51;68.26;100534.91;5043255;28;20048;-85
2022/06/21 01:35:31;;;;;;;12.45;2.78;;;;;;;12.43;69.55;100546.28;5055761;28;20484;-83
2022/06/21 01:37:58;;;;;;;10.05;2.22;;;;;;;12.24;69.72;100553.44;5055965;28;20083;-82
2022/06/21 01:40:30;;;;;;;10.35;3.17;;;;;;;12.12;70.85;100552.81;5089557;28;20059;-86
2022/06/21 01:43:06;;;;;;;13.02;3.03;;;;;;;12.04;71.63;100542.09;5056220;28;20490;-85
2022/06/21 01:45:46;;;;;;;15.40;3.92;;;;;;;11.94;72.03;100549.31;5061019;28;20025;-83
2022/06/21 01:48:22;;;;;;;17.90;3.78;;;;;;;11.87;72.90;100565.81;5054073;28;20037;-83
2022/06/21 01:50:50;;;;;;;;;;;;;;;11.73;75.71;100556.56;5053364;28;20080;-83
2022/06/21 01:53:20;;;;;;;17.42;3.33;;;;;;;11.77;73.77;100551.78;5055338;28;20348;-83
2022/06/21 01:55:58;;;;;;;10.38;2.95;;;;;;;11.82;73.74;100541.56;5050325;28;20098;-83
2022/06/21 01:58:28;;;;;;;17.17;3.95;;;;;;;11.89;74.36;100539.16;5072300;28;20056;-83
2022/06/21 02:01:00;;;;;;;16.60;2.97;;;;;;;11.90;74.83;100544.31;5055238;28;20036;-83
2022/06/21 02:03:33;;;;;;;14.57;3.10;;;;;;;11.89;75.27;100549.75;5050325;28;20037;-83
2022/06/21 02:06:05;;;;;;;16.13;3.55;;;;;;;11.94;75.34;100541.34;5078087;28;20032;-83
2022/06/21 02:08:51;;;;;;;14.10;3.03;;;;;;;11.90;75.93;100517.81;5071615;28;20025;-83
2022/06/21 02:11:33;;;;;;;14.63;3.28;;;;;;;11.90;76.06;100527.56;5072490;28;20060;-83
2022/06/21 02:16:51;;;;;;;16.20;3.35;;;;;;;11.97;76.31;100518.06;5072526;28;20051;-83
2022/06/21 02:19:32;;;;;;;17.13;3.22;;;;;;;12.00;76.43;100515.09;5053756;28;20506;-83
2022/06/21 02:21:58;;;;;;;14.60;3.25;;;;;;;12.08;76.74;100509.06;5070642;28;20515;-86
2022/06/21 02:24:28;;;;;;;15.30;3.42;;;;;;;12.15;76.72;100510.13;5072506;28;20029;-85
2022/06/21 02:26:55;;;;;;;14.60;3.47;;;;;;;12.25;76.46;100498.59;5071891;28;20044;-83
2022/06/21 02:29:21;;;;;;;15.10;3.30;;;;;;;12.30;76.30;100500.78;5080928;28;20025;-83
2022/06/21 02:31:46;;;;;;;17.58;3.38;;;;;;;12.32;76.85;100502.31;5062868;28;20389;-83
2022/06/21 02:34:21;;;;;;;16.35;3.55;;;;;;;12.35;76.84;100498.50;5053748;28;20455;-83
2022/06/21 02:36:52;;;;;;;14.52;2.67;;;;;;;12.44;76.89;100492.25;5066860;28;20036;-83
2022/06/21 02:39:21;;;;;;;14.20;3.10;;;;;;;12.55;76.92;100496.47;5068550;28;20036;-83
2022/06/21 02:41:54;;;;;;;10.68;2.17;;;;;;;12.63;77.13;100495.69;5072795;28;20082;-85
2022/06/21 02:44:25;;;;;;;18.27;2.85;;;;;;;12.69;76.82;100492.44;5074447;28;20062;-85
2022/06/21 02:46:56;;;;;;;9.65;2.05;;;;;;;12.77;77.06;100489.81;5071620;28;20071;-84
2022/06/21 02:49:31;;;;;;;12.82;2.80;;;;;;;12.83;76.93;100488.38;5064886;28;20058;-85
2022/06/21 02:52:21;;;;;;;11.32;2.53;;;;;;;12.89;77.23;100477.13;5061918;28;20497;-85
2022/06/21 02:54:59;;;;;;;13.25;2.53;;;;;;;12.97;76.89;100484.28;5061223;28;20045;-84
2022/06/21 02:57:34;;;;;;;16.02;2.63;;;;;;;13.04;76.86;100484.47;5067501;28;20037;-83
2022/06/21 03:00:03;;;;;;;15.15;2.60;;;;;;;13.11;76.72;100484.66;5042592;28;20171;-85
2022/06/21 03:02:32;;;;;;;11.43;2.47;;;;;;;13.10;76.88;100480.34;5070754;28;20025;-84
2022/06/21 03:05:06;;;;;;;20.27;3.80;;;;;;;13.14;76.95;100495.78;5065362;28;20106;-85
2022/06/21 03:07:40;;;;;;;21.95;3.55;;;;;;;13.15;77.18;100484.16;5056272;28;20032;-85
2022/06/21 03:10:08;;;;;;;17.13;3.03;;;;;;;13.18;77.28;100503.44;5070907;28;20037;-85
2022/06/21 03:12:34;;;;;;;16.13;3.05;;;;;;;13.18;77.17;100498.13;5072419;28;20035;-84
2022/06/21 03:15:07;;;;;;;17.50;3.65;;;;;;;13.19;77.60;100490.00;5062848;28;20052;-83
2022/06/21 03:17:49;;;;;;;14.02;3.65;;;;;;;13.19;77.57;100489.16;5069756;28;20064;-82
2022/06/21 03:20:18;;;;;;;19.33;4.35;;;;;;;13.22;77.82;100484.38;5055717;28;20380;-85
2022/06/21 03:22:45;;;;;;;12.15;3.38;;;;;;;13.24;77.85;100492.16;5072884;28;20082;-85
2022/06/21 03:25:38;;;;;;;16.23;3.72;;;;;;;13.17;77.55;100488.50;5069986;28;20440;-83
2022/06/21 03:28:40;;;;;;;17.70;3.67;;;;;;;13.10;77.58;100491.81;5070347;28;20033;-83
2022/06/21 03:31:22;;;;;;;16.48;3.47;;;;;;;13.07;77.60;100472.72;5062332;28;20504;-83
2022/06/21 03:33:52;;;;;;;18.08;3.20;;;;;;;12.98;77.36;100470.00;5070795;28;20072;-83
2022/06/21 03:36:25;;;;;;;18.20;3.25;;;;;;;12.93;77.62;100463.53;5068340;28;20036;-82
2022/06/21 03:39:09;;;;;;;16.23;3.40;;;;;;;12.88;77.49;100464.81;5070941;28;20032;-83
2022/06/21 03:41:43;;;;;;;22.23;4.00;;;;;;;12.79;77.37;100463.13;5051383;28;20039;-84
2022/06/21 03:44:16;;;;;;;24.50;4.28;;;;;;;12.70;77.38;100459.63;5050762;28;20036;-85
2022/06/21 03:46:52;;;;;;;17.23;3.33;;;;;;;12.63;77.13;100464.72;5044000;28;20127;-82
2022/06/21 03:49:33;;;;;;;;;;;;;;;12.49;77.62;100455.53;5067641;28;20093;-83
2022/06/21 03:52:05;;;;;;;22.02;3.55;;;;;;;12.48;77.59;100455.69;5066830;28;19912;-82
2022/06/21 03:54:39;;;;;;;20.55;4.25;;;;;;;12.46;77.08;100447.03;5087579;28;20511;-83
2022/06/21 03:57:27;;;;;;;16.45;2.92;;;;;;;12.40;77.45;100448.50;5069084;28;20029;-83
2022/06/21 04:00:01;;;;;;;19.30;2.78;;;;;;;12.42;77.17;100445.72;5050714;28;20559;-83
2022/06/21 04:02:47;;;;;;;17.45;2.67;;;;;;;12.43;77.51;100447.34;5046531;28;20032;-83
2022/06/21 04:05:29;;;;;;;17.63;2.80;;;;;;;12.39;77.26;100450.31;5083427;28;20032;-83
2022/06/21 04:08:16;;;;;;;10.48;2.03;;;;;;;12.37;77.15;100449.66;5070797;28;20070;-83
2022/06/21 04:10:48;;;;;;;10.20;2.00;;;;;;;12.36;76.88;100440.03;5069775;28;20029;-83
2022/06/21 04:13:31;;;;;;;12.38;2.95;;;;;;;12.37;77.24;100440.88;5053292;28;20036;-83
2022/06/21 04:16:18;;;;;;;10.55;2.50;;;;;;;12.35;76.59;100433.09;5067910;28;20033;-84
2022/06/21 04:18:47;;;;;;;12.40;2.40;;;;;;;12.28;76.94;100432.88;5069864;28;20488;-84
2022/06/21 04:21:35;;;;;;;10.35;2.30;;;;;;;12.20;76.73;100430.16;5065176;28;20123;-85
2022/06/21 04:24:25;;;;;;;9.40;2.42;;;;;;;12.19;76.70;100431.16;5084671;28;20041;-84
2022/06/21 04:26:57;;;;;;;13.13;2.30;;;;;;;12.16;77.09;100431.47;5053347;28;20100;-83
2022/06/21 04:29:48;;;;;;;15.60;2.75;;;;;;;12.17;76.91;100432.31;5077173;28;20083;-83
2022/06/21 04:32:36;;;;;;;12.60;2.47;;;;;;;12.16;76.94;100436.75;5084587;28;20028;-83
2022/06/21 04:35:12;;;;;;;12.95;3.33;;;;;;;12.16;76.94;100434.13;5040570;28;20052;-82
2022/06/21 04:37:45;;;;;;;12.50;2.28;;;;;;;12.19;76.78;100427.66;5078693;28;20428;-82
2022/06/21 04:40:18;;;;;;;12.13;2.70;;;;;;;12.19;76.80;100422.38;5032529;28;20120;-83
2022/06/21 04:43:00;;;;;;;11.35;3.05;;;;;;;12.21;76.85;100425.69;5061891;28;20028;-83
2022/06/21 04:45:36;;;;;;;13.63;2.20;;;;;;;12.15;76.51;100424.50;5053222;28;20043;-85
2022/06/21 04:48:18;;;;;;;10.43;3.17;;;;;;;12.11;76.78;100423.13;5060728;28;20035;-84
2022/06/21 04:50:54;;;;;;;8.65;2.65;;;;;;;12.17;76.98;100421.72;5048289;28;20116;-82
2022/06/21 04:53:29;;;;;;;12.32;3.17;;;;;;;12.20;76.80;100421.41;5069121;28;20541;-83
2022/06/21 04:55:58;;;;;;;10.73;3.35;;;;;;;12.23;76.85;100421.09;5069603;28;20024;-83
2022/06/21 04:58:25;;;;;;;13.70;3.80;;;;;;;12.27;77.20;100414.47;5067176;28;20037;-83
2022/06/21 05:00:52;;;;;;;14.82;3.60;;;;;;;12.26;77.17;100416.28;5069016;28;20024;-85
2022/06/21 05:03:43;;;;;;;12.63;3.85;;;;;;;12.29;76.92;100415.16;5052024;28;20109;-84
2022/06/21 05:06:13;;;;;;;12.48;3.63;;;;;;;12.30;77.15;100427.41;5059955;28;20041;-83
2022/06/21 05:08:41;;;;;;;12.55;3.75;;;;;;;12.31;77.26;100423.75;5057070;28;20028;-82
2022/06/21 05:11:10;;;;;;;15.85;3.88;;;;;;;12.35;77.53;100419.00;5083780;28;20050;-83
2022/06/21 05:13:50;;;;;;;14.60;3.67;;;;;;;12.37;77.65;100424.97;5068970;28;20477;-83
2022/06/21 05:16:31;;;;;;;19.13;4.80;;;;;;;12.38;77.58;100422.16;5062081;28;21056;-84
2022/06/21 05:19:27;;;;;;;17.52;4.30;;;;;;;12.41;77.87;100423.66;5067834;28;20033;-84
2022/06/21 05:22:12;;;;;;;14.63;4.20;;;;;;;12.48;77.44;100429.16;5050122;28;20067;-83
2022/06/21 05:24:39;;;;;;;14.30;3.88;;;;;;;12.58;77.51;100418.47;5081109;28;20036;-82
2022/06/21 05:27:17;;;;;;;19.60;4.03;;;;;;;12.63;77.58;100421.44;5052050;28;20060;-82
2022/06/21 05:29:47;;;;;;;13.25;3.95;;;;;;;12.65;77.55;100417.66;5070008;28;20025;-82
2022/06/21 05:32:28;;;;;;;18.80;4.53;;;;;;;12.68;77.52;100413.03;5047237;28;20033;-82
2022/06/21 05:35:00;;;;;;;17.40;4.07;;;;;;;12.72;77.53;100414.38;5069145;28;20049;-83
2022/06/21 05:37:36;;;;;;;14.23;3.75;;;;;;;12.78;77.43;100414.56;5036603;28;20035;-82
2022/06/21 05:40:12;;;;;;;;;;;;;;;12.76;77.63;100408.59;5085880;28;20043;-83
2022/06/21 05:42:38;;;;;;;15.52;4.57;;;;;;;12.86;77.47;100415.59;5068154;28;20273;-83
2022/06/21 05:45:13;;;;;;;12.43;4.00;;;;;;;12.97;77.26;100417.13;5052586;28;20048;-82
2022/06/21 05:47:43;;;;;;;16.95;3.47;;;;;;;13.05;76.85;100413.66;5053930;28;20428;-82
2022/06/21 05:50:18;;;;;;;14.20;3.70;;;;;;;13.12;76.82;100415.50;5088995;28;20495;-84
2022/06/21 05:52:49;;;;;;;14.38;3.80;;;;;;;13.19;76.91;100421.00;5047504;28;20036;-84
2022/06/21 05:55:35;;;;;;;13.13;3.35;;;;;;;13.25;76.73;100416.88;5048890;28;20424;-82
2022/06/21 05:58:05;;;;;;;14.48;3.17;;;;;;;13.27;76.97;100413.06;5071010;28;20036;-82
2022/06/21 06:00:53;;;;;;;13.98;4.05;;;;;;;13.29;76.87;100412.88;5056800;28;20048;-82
2022/06/21 06:03:23;;;;;;;10.30;3.15;;;;;;;13.32;77.09;100407.25;5069430;28;20059;-82
2022/06/21 06:05:49;;;;;;;14.10;3.65;;;;;;;13.38;76.96;100405.75;5074536;28;20535;-82
2022/06/21 06:08:23;;;;;;;18.15;3.60;;;;;;;13.45;76.73;100398.81;5046945;28;20037;-83
2022/06/21 06:10:50;;;;;;;22.42;4.63;;;;;;;13.50;76.95;100399.19;5072057;28;20107;-82
2022/06/21 06:13:28;;;;;;;8.38;3.03;;;;;;;13.55;77.02;100404.00;5071654;28;20032;-82
2022/06/21 06:15:59;;;;;;;13.05;3.17;;;;;;;13.58;77.02;100403.69;5076718;28;20036;-84
2022/06/21 06:18:35;;;;;;;15.13;3.58;;;;;;;13.58;76.99;100409.00;5036821;28;20128;-84
2022/06/21 06:21:06;;;;;;;13.32;3.45;;;;;;;13.60;77.21;100411.47;5070976;28;20511;-82
2022/06/21 06:23:48;;;;;;;11.88;3.10;;;;;;;13.60;77.12;100412.28;5072112;28;20439;-83
2022/06/21 06:26:17;;;;;;;14.02;3.30;;;;;;;13.63;77.38;100406.63;5056009;28;20041;-84
2022/06/21 06:29:20;;;;;;;14.57;3.30;;;;;;;13.68;77.53;100408.00;5054377;28;20030;-84
2022/06/21 06:31:51;;;;;;;10.07;3.03;;;;;;;13.72;77.55;100404.00;5050735;28;20128;-85
2022/06/21 06:34:24;;;;;;;18.08;4.03;;;;;;;13.78;77.38;100403.31;5047165;28;20081;-84
2022/06/21 06:36:54;;;;;;;13.40;3.42;;;;;;;13.79;77.58;100394.38;5049772;28;20032;-82
2022/06/21 06:39:22;;;;;;;14.88;3.58;;;;;;;13.87;77.51;100404.97;5078137;28;20037;-82
2022/06/21 06:42:00;;;;;;;11.02;2.85;;;;;;;13.93;77.52;100408.81;5087172;28;20040;-84
2022/06/21 06:44:36;;;;;;;12.48;3.38;;;;;;;13.98;77.48;100408.31;5054791;28;20378;-84
2022/06/21 06:47:04;;;;;;;10.23;3.10;;;;;;;14.04;77.39;100404.13;5068735;28;20080;-82
2022/06/21 06:49:42;;;;;;;10.95;3.20;;;;;;;14.09;77.19;100410.63;5053193;28;20078;-83
2022/06/21 06:52:17;;;;;;;14.48;3.58;;;;;;;14.12;77.19;100409.44;5055082;28;20094;-83
2022/06/21 06:54:52;;;;;;;12.50;2.77;;;;;;;14.13;77.34;100409.28;5066967;28;20393;-82
2022/06/21 06:57:32;;;;;;;12.63;3.20;;;;;;;14.14;77.41;100408.28;5064307;28;20033;-82
2022/06/21 07:00:11;;;;;;;10.77;3.03;;;;;;;14.22;77.15;100409.28;5054284;28;20527;-83
2022/06/21 07:02:45;;;;;;;13.75;2.85;;;;;;;14.34;77.28;100412.38;5072072;28;20034;-82
2022/06/21 07:05:38;;;;;;;9.10;2.92;;;;;;;14.34;77.46;100413.22;5052544;28;20078;-83
2022/06/21 07:08:16;;;;;;;6.90;1.75;;;;;;;14.40;77.84;100406.38;5070439;28;20029;-83
2022/06/21 07:10:45;;;;;;;5.68;1.73;;;;;;;14.45;78.15;100406.72;5060853;28;20052;-82
2022/06/21 07:13:11;;;;;;;5.75;1.65;;;;;;;14.49;78.51;100392.06;5084286;28;20495;-81
2022/06/21 07:15:41;;;;;;;8.88;2.10;;;;;;;14.63;78.72;100395.03;5070832;28;20032;-83
2022/06/21 07:18:29;;;;;;;5.40;1.75;;;;;;;14.80;78.79;100386.97;5053438;28;20025;-83
2022/06/21 07:20:55;;;;;;;6.38;1.80;;;;;;;14.97;78.96;100385.09;5070619;28;20043;-83
2022/06/21 07:23:24;;;;;;;4.90;1.77;;;;;;;15.11;78.88;100383.50;5068911;28;20029;-82
2022/06/21 07:25:57;;;;;;;10.20;1.80;;;;;;;15.12;78.61;100372.69;5065907;28;20034;-83
2022/06/21 07:28:41;;;;;;;4.28;1.40;;;;;;;15.21;78.76;100367.31;5051091;28;20488;-83
2022/06/21 07:31:35;;;;;;;1.88;1.20;;;;;;;15.22;78.56;100369.78;5085977;28;20488;-83
2022/06/21 07:34:12;;;;;;;1.45;0.82;;;;;;;15.28;78.66;100360.25;5047145;28;20127;-83
2022/06/21 07:36:50;;;;;;;3.85;1.00;;;;;;;15.33;78.09;100362.38;5071863;28;20036;-83
2022/06/21 07:39:39;;;;;;;1.02;0.80;;;;;;;15.33;78.18;100360.56;5080598;28;20499;-83
2022/06/21 07:42:08;;;;;;;2.67;0.70;;;;;;;15.29;78.28;100369.88;5068337;28;20033;-83
2022/06/21 07:44:42;;;;;;;1.55;0.73;;;;;;;15.29;78.32;100364.56;5052546;28;20139;-83
2022/06/21 07:47:36;;;;;;;3.05;0.82;;;;;;;15.23;78.25;100360.78;5042145;28;20047;-82
2022/06/21 07:50:11;;;;;;;2.95;0.80;;;;;;;15.20;78.55;100365.63;5063402;28;20342;-85
2022/06/21 07:53:24;;;;;;;1.10;0.63;;;;;;;15.19;78.61;100358.66;5056317;28;20085;-85
2022/06/21 07:55:59;;;;;;;0.68;0.40;;;;;;;15.21;78.49;100354.81;5043533;28;20504;-82
2022/06/21 07:58:34;;;;;;;0.30;0.30;;;;;;;15.21;78.47;100364.66;5072710;28;20033;-83
2022/06/21 08:06:49;;;;;;;0.90;0.30;;;;;;;15.33;78.86;100357.06;5077476;28;20423;-83
2022/06/21 08:09:21;;;;;;;2.83;0.50;;;;;;;15.33;78.76;100357.06;5052534;28;20028;-82
2022/06/21 08:11:49;;;;;;;4.10;0.60;;;;;;;15.24;79.03;100356.31;5046718;28;20112;-82
2022/06/21 08:14:16;;;;;;;6.93;0.40;;;;;;;15.33;78.96;100346.41;5069900;28;20396;-83
2022/06/21 08:17:05;;;;;;;0.95;0.30;;;;;;;15.42;78.46;100340.00;5037261;28;20032;-85
2022/06/21 08:19:50;;;;;;;0.63;0.40;;;;;;;15.48;78.31;100352.59;5068680;28;20048;-84
2022/06/21 08:22:26;;;;;;;0.57;0.45;;;;;;;15.57;78.53;100345.38;5036910;28;20036;-83
2022/06/21 08:25:02;;;;;;;0.95;0.30;;;;;;;15.56;78.27;100338.38;5066135;28;20048;-83
2022/06/21 08:27:59;;;;;;;0.45;0.32;;;;;;;15.61;78.06;100341.34;5047391;28;20488;-82
2022/06/21 08:30:31;;;;;;;0.30;0.20;;;;;;;15.70;77.99;100351.94;5066543;28;20040;-85
2022/06/21 08:33:07;;;;;;;1.27;0.50;;;;;;;15.80;77.38;100347.16;5037359;28;20121;-85
2022/06/21 08:35:38;;;;;;;0.63;0.38;;;;;;;15.80;77.28;100349.03;5053754;28;20041;-86
2022/06/21 08:38:07;;;;;;;1.35;0.47;;;;;;;15.87;76.92;100353.44;5052159;28;20111;-86
2022/06/21 08:40:52;;;;;;;0.75;0.40;;;;;;;15.86;76.57;100356.28;5061017;28;20022;-82
2022/06/21 08:43:44;;;;;;;0.60;0.30;;;;;;;15.85;76.68;100354.59;5069781;28;20063;-83
2022/06/21 08:46:52;;;;;;;0.60;0.40;;;;;;;15.84;76.84;100356.47;5059194;28;20091;-82
2022/06/21 08:49:18;;;;;;;1.27;0.85;;;;;;;15.91;76.88;100359.22;5008720;28;20137;-82
2022/06/21 08:52:22;;;;;;;0.57;0.30;;;;;;;16.03;76.43;100361.47;4991439;28;20207;-84
2022/06/21 08:54:54;;;;;;;1.60;0.30;;;;;;;16.12;76.17;100368.38;5032739;28;20484;-84
2022/06/21 08:57:35;;;;;;;2.17;0.52;;;;;;;16.18;75.77;100362.28;5051156;28;20443;-85
2022/06/21 09:00:19;;;;;;;1.10;0.50;;;;;;;16.31;75.64;100360.84;5066764;28;20024;-82
2022/06/21 09:03:08;;;;;;;4.00;0.60;;;;;;;16.39;75.49;100368.75;5058705;28;20112;-83
2022/06/21 09:05:49;;;;;;;0.40;0.40;;;;;;;16.49;75.45;100363.97;5049292;28;20039;-83
2022/06/21 09:08:52;;;;;;;0.30;0.30;;;;;;;16.65;75.31;100355.91;5037056;28;20036;-83
2022/06/21 09:11:32;;;;;;;1.10;0.50;;;;;;;16.66;75.03;100355.72;5043821;28;20508;-83
2022/06/21 09:14:28;;;;;;;1.73;0.55;;;;;;;16.71;75.07;100350.66;5068179;28;20132;-83
2022/06/21 09:17:30;;;;;;;0.68;0.22;;;;;;;16.77;75.16;100343.75;5056792;28;20133;-85
2022/06/21 09:20:24;;;;;;;0.50;0.30;;;;;;;17.11;74.89;100347.63;5052204;28;20068;-84
2022/06/21 09:23:11;;;;;;;2.10;0.50;;;;;;;17.34;74.22;100351.94;5063162;28;20024;-84
2022/06/21 09:25:44;;;;;;;2.15;0.30;;;;;;;17.39;73.56;100353.22;5072854;28;20036;-84
2022/06/21 09:28:22;;;;;;;0.50;0.30;;;;;;;17.44;73.03;100351.63;5056733;28;20040;-83
2022/06/21 09:31:22;;;;;;;0.60;0.22;;;;;;;17.52;73.22;100356.00;5065236;28;20506;-84
2022/06/21 09:33:57;;;;;;;0.85;0.47;;;;;;;17.53;72.99;100351.50;5057603;28;20161;-83
2022/06/21 09:36:23;;;;;;;0.75;0.30;;;;;;;17.47;73.23;100353.91;5067264;28;20028;-83
2022/06/21 09:39:04;;;;;;;1.08;0.47;;;;;;;17.47;72.85;100353.09;5055259;28;20035;-84
2022/06/21 09:41:59;;;;;;;1.58;0.50;;;;;;;17.44;72.70;100359.63;5054960;28;20051;-84
2022/06/21 09:44:34;;;;;;;0.75;0.43;;;;;;;17.48;72.47;100352.91;5073292;28;20496;-83
2022/06/21 09:47:29;;;;;;;0.70;0.50;;;;;;;17.55;72.17;100358.28;5056590;28;20037;-83
2022/06/21 09:50:21;;;;;;;0.95;0.30;;;;;;;17.59;72.05;100356.06;5033213;28;20466;-85
2022/06/21 09:52:58;;;;;;;0.30;0.30;;;;;;;17.62;71.99;100358.34;5054960;28;20028;-86
2022/06/21 09:55:43;;;;;;;0.57;0.43;;;;;;;17.64;72.03;100358.16;5031772;28;20257;-83
2022/06/21 09:58:55;;;;;;;2.47;0.40;;;;;;;17.63;72.02;100353.84;5069600;28;20049;-83
2022/06/21 10:01:39;;;;;;;0.50;0.20;;;;;;;17.78;71.63;100356.41;5036823;28;20068;-82
2022/06/21 10:04:47;;;;;;;4.13;0.30;;;;;;;17.79;71.26;100358.09;5049176;28;20040;-83
2022/06/21 10:07:37;;;;;;;1.95;0.30;;;;;;;17.83;71.07;100354.81;4994942;28;20125;-83
2022/06/21 10:10:27;;;;;;;1.42;0.30;;;;;;;17.90;70.48;100354.03;5082014;28;20136;-84
2022/06/21 10:12:59;;;;;;;0.35;0.28;;;;;;;17.94;70.53;100349.94;5044178;28;20481;-83
2022/06/21 10:15:38;;;;;;;0.47;0.20;;;;;;;18.06;69.74;100347.56;5072407;28;20028;-87
2022/06/21 10:18:11;;;;;;;2.40;0.25;;;;;;;18.13;69.63;100355.63;5071388;28;20064;-87
2022/06/21 10:21:29;;;;;;;0.32;0.20;;;;;;;18.16;69.07;100355.25;5052922;28;20044;-85
2022/06/21 10:24:16;;;;;;;0.43;0.20;;;;;;;18.29;68.79;100354.50;5001901;28;20044;-83
2022/06/21 10:27:04;;;;;;;1.05;0.32;;;;;;;18.42;68.56;100356.41;5067120;28;20373;-83
2022/06/21 10:29:50;;;;;;;0.65;0.20;;;;;;;18.51;68.44;100351.69;5072314;28;20037;-84
2022/06/21 10:32:15;;;;;;;3.15;0.60;;;;;;;18.51;68.66;100354.38;5038923;28;20722;-83
2022/06/21 10:35:10;;;;;;;0.30;0.30;;;;;;;18.58;69.06;100350.72;5070751;28;20052;-83
2022/06/21 10:37:56;;;;;;;2.08;0.70;;;;;;;18.82;68.48;100347.72;5039582;28;20055;-84
2022/06/21 10:40:39;;;;;;;1.23;0.40;;;;;;;18.93;68.30;100339.09;5052470;28;20029;-85
2022/06/21 10:43:07;;;;;;;0.38;0.30;;;;;;;19.09;68.31;100345.13;5068599;28;20040;-87
2022/06/21 10:45:39;;;;;;;3.25;0.60;;;;;;;19.25;68.35;100341.25;5056147;28;20047;-84
2022/06/21 10:48:14;;;;;;;3.90;0.50;;;;;;;19.29;68.76;100338.94;5071891;28;20032;-83
2022/06/21 10:51:02;;;;;;;1.13;0.52;;;;;;;19.46;68.31;100342.06;5071796;28;20047;-83
2022/06/21 10:53:47;;;;;;;3.70;0.50;;;;;;;19.63;67.34;100342.47;5068496;28;20041;-84
2022/06/21 11:02:54;;;;;;;3.17;0.65;;;;;;;19.71;65.16;100336.06;5015569;28;20038;-83
2022/06/21 11:05:34;;;;;;;1.65;0.30;;;;;;;19.81;64.61;100336.47;5055483;28;20036;-85
2022/06/21 11:08:06;;;;;;;0.65;0.28;;;;;;;19.94;64.18;100332.94;5056542;28;20044;-86
2022/06/21 11:10:36;;;;;;;0.45;0.30;;;;;;;20.00;63.64;100331.28;5055691;28;20063;-84
2022/06/21 11:13:06;;;;;;;0.30;0.30;;;;;;;20.02;63.35;100333.75;5072749;28;20032;-84
2022/06/21 11:15:50;;;;;;;2.20;0.40;;;;;;;20.02;63.10;100331.06;5072325;28;20040;-83
2022/06/21 11:18:27;;;;;;;1.30;0.30;;;;;;;20.08;62.83;100332.94;5079366;28;20040;-83
2022/06/21 11:21:00;;;;;;;0.20;0.20;;;;;;;19.95;62.69;100339.13;5055208;28;20111;-83
2022/06/21 11:23:38;;;;;;;1.67;0.30;;;;;;;19.95;62.79;100336.44;5083965;28;20037;-83
2022/06/21 11:26:32;;;;;;;3.65;0.30;;;;;;;20.05;63.00;100331.50;5072139;28;20045;-84
2022/06/21 11:29:04;;;;;;;0.75;0.50;;;;;;;20.12;63.29;100334.16;5056104;28;20434;-83
2022/06/21 11:31:55;;;;;;;0.30;0.10;;;;;;;20.25;62.48;100335.16;5072293;28;20439;-84
2022/06/21 11:34:25;;;;;;;0.10;0.10;;;;;;;20.39;62.30;100330.56;5055737;28;20141;-84
2022/06/21 11:37:10;;;;;;;1.25;0.20;;;;;;;20.48;61.33;100334.63;5054736;28;20051;-85
2022/06/21 11:39:36;;;;;;;1.17;0.40;;;;;;;20.63;61.18;100331.69;5071757;28;20036;-84
2022/06/21 11:42:41;;;;;;;0.77;0.38;;;;;;;20.62;60.57;100327.38;5072198;28;20415;-84
2022/06/21 11:45:28;;;;;;;0.82;0.30;;;;;;;20.43;61.41;100331.78;5053304;28;20064;-84
2022/06/21 11:48:21;;;;;;;0.77;0.32;;;;;;;20.30;62.17;100332.66;5088405;28;20535;-85
2022/06/21 11:51:10;;;;;;;0.50;0.30;;;;;;;19.93;62.26;100336.66;5044255;28;20043;-83
2022/06/21 11:53:55;;;;;;;0.90;0.50;;;;;;;19.69;63.79;100333.59;5046799;28;20036;-83
2022/06/21 11:56:37;;;;;;;0.90;0.30;;;;;;;19.50;64.61;100339.78;5069097;28;20028;-83
2022/06/21 11:59:28;;;;;;;4.38;0.52;;;;;;;19.32;64.68;100342.06;5070218;28;20389;-84
2022/06/21 12:02:10;;;;;;;1.65;0.38;;;;;;;19.41;64.94;100341.84;5050756;28;20029;-83
2022/06/21 12:04:49;;;;;;;1.98;0.30;;;;;;;19.27;64.69;100349.06;5053765;28;20032;-84
2022/06/21 12:07:49;;;;;;;0.60;0.30;;;;;;;19.15;65.27;100349.66;5070829;28;20062;-83
2022/06/21 12:10:19;;;;;;;1.02;0.20;;;;;;;19.03;65.57;100340.56;5086938;28;20035;-83
2022/06/21 12:12:48;;;;;;;0.80;0.40;;;;;;;19.00;65.49;100338.28;5066671;28;20078;-85
2022/06/21 12:15:48;;;;;;;0.73;0.30;;;;;;;19.01;65.88;100342.59;5048902;28;20396;-84
2022/06/21 12:18:20;;;;;;;2.67;0.47;;;;;;;19.07;65.84;100349.81;5070381;28;20036;-83
2022/06/21 12:21:13;;;;;;;0.32;0.20;;;;;;;19.09;65.75;100342.44;5086446;28;20059;-83
2022/06/21 12:23:50;;;;;;;3.25;0.50;;;;;;;19.21;65.59;100338.13;5070420;28;20502;-85
2022/06/21 12:26:28;;;;;;;2.20;0.35;;;;;;;19.27;65.09;100341.84;5038673;28;20515;-84